< Typhoon 199311 1993 Season Typhoon 199313 >
Typhoon 199312 (WINONA)
General InformationTrack Information on Google MapsDetailed Wind InformationList of All Images || NewsDisaster Info.ResourceGoogle EarthGE AnimationAtom FeedGeoJSON
Detalied Best Track (Time Zone = UTC)
Year Month Day Hour Lat. Long. Pressure (hPa) Wind (kt) Class Image Chart
1993 8 22 06 11.5 125.5 1006 0 2 Image Chart
1993 8 22 12 11.6 124.0 1006 0 2 Image Chart
1993 8 22 18 11.7 122.5 1004 0 2 Image Chart
1993 8 23 00 11.8 121.0 1004 0 2 Image Chart
1993 8 23 06 11.9 120.2 1002 0 2 Image Chart
1993 8 23 12 12.0 119.3 998 35 3 Image Chart
1993 8 23 18 12.3 118.2 994 35 3 Image Chart
1993 8 24 00 12.8 117.5 990 40 3 Image Chart
1993 8 24 06 14.0 116.8 990 40 3 Image Chart
1993 8 24 12 15.0 116.4 990 40 3 Image Chart
1993 8 24 18 15.6 116.1 990 40 3 Image Chart
1993 8 25 00 16.2 115.9 990 40 3 Image Chart
1993 8 25 06 16.9 115.7 990 40 3 Image Chart
1993 8 25 12 17.3 115.7 990 40 3 Image Chart
1993 8 25 18 17.5 115.8 990 40 3 Image Chart
1993 8 26 00 17.6 115.8 992 40 3 Image Chart
1993 8 26 06 17.8 115.8 994 40 3 Image Chart
1993 8 26 12 18.0 115.7 994 40 3 Image Chart
1993 8 26 18 18.0 115.4 994 40 3 Image Chart
1993 8 27 00 17.9 114.8 994 40 3 Image Chart
1993 8 27 06 17.7 114.1 994 40 3 Image Chart
1993 8 27 12 17.5 113.5 994 40 3 Image Chart
1993 8 27 18 17.4 112.9 994 40 3 Image Chart
1993 8 28 00 17.2 112.1 996 40 3 Image Chart
1993 8 28 06 16.9 110.9 996 40 3 Image Chart
1993 8 28 12 16.7 109.4 996 40 3 Image Chart
1993 8 28 18 16.8 108.3 996 40 3 Image Chart
1993 8 29 00 17.1 107.5 998 35 3 Image Chart
1993 8 29 06 17.5 106.5 1000 35 3 Image Chart
1993 8 29 12 18.0 105.0 1004 0 2 Image Chart
1993 8 29 18 18.0 103.5 1006 0 2 Image Chart
Japan Meteorological Agency Best Track Data | Correction Date : 1994-01-10
< Typhoon 199311 1993 Season Typhoon 199313 >

Help